Time;durP1;ratioP1;P1;durP2;ratioP2;P2;SDS_P1;SDS_P2;PMS_P1;PMS_P2;Temp;Humidity;BMP_temperature;BMP_pressure;BME280_temperature;BME280_humidity;BME280_pressure;Samples;Min_cycle;Max_cycle;Signal;HPM_P1;HPM_P2
2023/04/21 00:00:51;;;;;;;15.90;10.03;;;;;;;11.55;83.26;94474.06;5094460;28;20467;-81
2023/04/21 00:03:20;;;;;;;12.43;9.00;;;;;;;11.54;83.09;94477.66;5094200;28;21029;-81
2023/04/21 00:05:47;;;;;;;11.77;10.50;;;;;;;11.48;83.28;94468.56;5094845;28;20823;-81
2023/04/21 00:08:14;;;;;;;13.80;10.47;;;;;;;11.40;83.63;94465.84;5094387;28;20860;-82
2023/04/21 00:10:41;;;;;;;13.07;10.80;;;;;;;11.28;83.59;94467.03;5094566;28;20435;-82
2023/04/21 00:13:08;;;;;;;12.40;11.07;;;;;;;11.29;84.19;94468.69;5094268;28;20802;-81
2023/04/21 00:15:36;;;;;;;12.57;10.70;;;;;;;11.29;83.80;94457.34;5094392;28;20442;-81
2023/04/21 00:21:25;;;;;;;12.67;10.40;;;;;;;11.28;84.34;94466.19;5093514;28;20432;-82
2023/04/21 00:23:52;;;;;;;12.30;9.83;;;;;;;11.25;83.96;94466.44;5094342;28;21074;-81
2023/04/21 00:26:19;;;;;;;16.07;10.70;;;;;;;11.21;82.95;94465.09;5094100;28;20444;-82
2023/04/21 00:28:46;;;;;;;13.10;9.90;;;;;;;11.18;83.32;94467.03;5094037;28;20546;-82
2023/04/21 00:31:14;;;;;;;11.90;9.30;;;;;;;11.07;84.72;94459.34;5094398;28;20439;-82
2023/04/21 00:33:41;;;;;;;15.00;10.30;;;;;;;11.03;84.76;94465.88;5093871;28;20443;-82
2023/04/21 00:36:08;;;;;;;11.03;10.03;;;;;;;11.00;83.98;94466.16;5094278;28;20447;-82
2023/04/21 00:38:35;;;;;;;11.43;9.73;;;;;;;10.97;83.83;94466.41;5094248;28;20475;-82
2023/04/21 00:41:02;;;;;;;10.63;9.60;;;;;;;10.91;83.55;94472.25;5093557;28;20952;-82
2023/04/21 00:43:29;;;;;;;13.37;10.50;;;;;;;10.90;83.47;94464.50;5041773;28;20476;-82
2023/04/21 00:45:56;;;;;;;11.47;10.33;;;;;;;10.85;84.18;94463.13;5093531;28;20926;-81
2023/04/21 00:48:25;;;;;;;11.30;10.20;;;;;;;10.82;84.92;94465.22;5094020;28;20426;-82
2023/04/21 00:50:52;;;;;;;12.53;11.20;;;;;;;10.78;84.75;94463.84;5094908;28;20454;-82
2023/04/21 00:53:20;;;;;;;11.67;10.20;;;;;;;10.62;84.47;94459.19;5094066;28;20463;-82
2023/04/21 00:55:47;;;;;;;10.57;9.50;;;;;;;10.63;84.88;94457.38;5094001;28;20485;-82
2023/04/21 00:58:14;;;;;;;15.20;10.00;;;;;;;10.64;85.33;94452.00;5093455;28;20851;-81
2023/04/21 01:00:41;;;;;;;13.13;11.10;;;;;;;10.61;83.88;94456.69;5093514;28;20432;-82
2023/04/21 01:03:11;;;;;;;12.70;10.93;;;;;;;10.57;84.70;94453.53;5093487;28;20822;-81
2023/04/21 01:05:40;;;;;;;14.50;10.93;;;;;;;10.50;85.15;94460.31;5094513;28;20455;-82
2023/04/21 01:08:07;;;;;;;14.40;11.97;;;;;;;10.46;84.61;94454.53;5058271;28;20505;-81
2023/04/21 01:10:34;;;;;;;12.37;10.43;;;;;;;10.46;85.28;94451.91;5093663;28;20509;-82
2023/04/21 01:13:01;;;;;;;15.57;11.13;;;;;;;10.45;85.43;94447.63;5093440;28;20440;-81
2023/04/21 01:15:29;;;;;;;14.70;9.30;;;;;;;10.42;85.13;94455.78;5093481;28;20489;-81
2023/04/21 01:17:57;;;;;;;17.07;10.50;;;;;;;10.39;85.55;94453.41;5093111;28;20444;-82
2023/04/21 01:20:23;;;;;;;14.70;11.40;;;;;;;10.36;85.36;94453.69;5094159;28;20440;-81
2023/04/21 01:22:51;;;;;;;11.97;10.10;;;;;;;10.33;84.28;94447.91;5093676;28;20432;-82
2023/04/21 01:25:21;;;;;;;11.70;9.67;;;;;;;10.34;85.45;94450.38;5093727;28;20470;-82
2023/04/21 01:27:47;;;;;;;13.10;10.30;;;;;;;10.31;85.86;94444.59;5042863;28;20534;-81
2023/04/21 01:30:14;;;;;;;11.63;10.43;;;;;;;10.29;84.84;94447.34;5093294;28;20829;-81
2023/04/21 01:32:41;;;;;;;12.03;10.80;;;;;;;10.03;86.11;94447.03;5093590;28;20432;-83
2023/04/21 01:35:09;;;;;;;12.73;11.03;;;;;;;10.07;86.37;94452.84;5093674;28;20444;-81
2023/04/21 01:37:35;;;;;;;22.57;15.20;;;;;;;10.04;86.53;94445.25;5058343;28;20459;-81
2023/04/21 01:40:08;;;;;;;19.67;13.73;;;;;;;10.09;87.20;94456.97;5096548;28;20478;-81
2023/04/21 01:42:37;;;;;;;24.80;15.70;;;;;;;10.10;86.29;94450.75;5097533;28;20464;-83
2023/04/21 01:45:04;;;;;;;21.13;15.67;;;;;;;10.11;86.37;94449.81;5097450;28;20559;-81
2023/04/21 01:47:31;;;;;;;21.53;15.50;;;;;;;10.12;85.37;94450.63;5097236;28;20434;-81
2023/04/21 01:49:58;;;;;;;19.33;14.20;;;;;;;10.10;86.15;94437.66;5097595;28;20475;-82
2023/04/21 01:52:25;;;;;;;19.33;15.47;;;;;;;10.12;85.64;94437.53;5045905;28;20438;-82
2023/04/21 01:54:52;;;;;;;26.03;15.20;;;;;;;10.15;85.27;94442.50;5097502;28;20842;-81
2023/04/21 01:57:20;;;;;;;17.00;13.40;;;;;;;10.13;85.31;94445.28;5096998;28;20442;-81
2023/04/21 02:06:31;;;;;;;11.10;9.93;;;;;;;9.87;83.60;94442.38;5096066;28;20461;-81
2023/04/21 02:08:58;;;;;;;13.30;9.77;;;;;;;9.87;84.04;94452.03;5097008;28;20479;-81
2023/04/21 02:11:25;;;;;;;10.77;9.67;;;;;;;9.77;84.55;94441.50;5096737;28;20443;-82
2023/04/21 02:13:54;;;;;;;11.33;8.90;;;;;;;9.78;84.39;94443.16;5097326;28;20440;-81
2023/04/21 02:16:24;;;;;;;10.63;9.30;;;;;;;9.79;86.19;94442.19;5096923;28;20441;-81
2023/04/21 02:18:52;;;;;;;11.60;9.70;;;;;;;9.78;84.81;94435.31;5097619;28;20470;-81
2023/04/21 02:21:20;;;;;;;13.80;10.77;;;;;;;9.83;85.54;94433.13;5097727;28;20454;-81
2023/04/21 02:23:47;;;;;;;13.63;9.60;;;;;;;9.89;84.62;94435.19;5103118;28;20460;-80
2023/04/21 02:26:13;;;;;;;9.73;8.47;;;;;;;9.91;84.59;94438.50;5102434;28;20940;-81
2023/04/21 02:28:40;;;;;;;13.07;9.87;;;;;;;9.96;83.67;94435.47;5096382;28;20902;-81
2023/04/21 02:31:08;;;;;;;10.40;9.30;;;;;;;9.96;83.77;94434.63;5101881;28;20456;-81
2023/04/21 02:33:36;;;;;;;13.10;8.90;;;;;;;10.05;83.97;94434.63;5098428;28;20465;-81
2023/04/21 02:36:03;;;;;;;11.50;8.60;;;;;;;10.10;82.90;94439.44;5106028;28;20473;-82
2023/04/21 02:38:30;;;;;;;13.17;8.93;;;;;;;10.09;82.67;94441.25;5116074;28;20681;-81
2023/04/21 02:40:57;;;;;;;10.27;8.60;;;;;;;10.05;82.44;94441.66;5113516;28;20430;-81
2023/04/21 02:43:23;;;;;;;14.40;9.50;;;;;;;9.99;82.77;94436.97;5107923;28;20446;-82
2023/04/21 02:45:50;;;;;;;15.13;11.33;;;;;;;9.94;82.83;94437.41;5108208;28;20481;-81
2023/04/21 02:48:21;;;;;;;11.57;9.23;;;;;;;9.80;82.04;94441.22;5074979;28;20448;-81
2023/04/21 02:50:48;;;;;;;12.17;10.33;;;;;;;9.70;83.07;94437.78;5110544;28;20472;-81
2023/04/21 02:53:15;;;;;;;10.30;9.03;;;;;;;9.71;83.34;94436.81;5107390;28;20520;-81
2023/04/21 02:55:42;;;;;;;12.60;10.53;;;;;;;9.69;83.82;94428.28;5108606;28;20450;-81
2023/04/21 02:58:09;;;;;;;10.10;8.97;;;;;;;9.78;83.83;94442.34;5111941;28;20442;-80
2023/04/21 03:00:35;;;;;;;14.63;12.20;;;;;;;9.74;83.34;94446.19;5113172;28;20438;-82
2023/04/21 03:03:03;;;;;;;12.80;11.60;;;;;;;9.57;84.16;94440.66;5111835;28;20469;-82
2023/04/21 03:05:31;;;;;;;12.10;10.80;;;;;;;9.36;84.50;94439.94;5055947;28;20481;-82
2023/04/21 03:07:58;;;;;;;13.13;11.07;;;;;;;9.27;84.83;94445.97;5106834;28;20454;-82
2023/04/21 03:10:25;;;;;;;16.83;10.60;;;;;;;9.24;86.24;94439.19;5106990;28;20434;-82
2023/04/21 03:12:52;;;;;;;17.07;11.57;;;;;;;9.02;87.68;94444.63;5109506;28;20806;-82
2023/04/21 03:15:20;;;;;;;13.03;11.50;;;;;;;9.02;88.67;94439.41;5105752;28;20449;-83
2023/04/21 03:17:46;;;;;;;14.73;12.10;;;;;;;9.15;89.53;94450.47;5109843;28;20440;-80
2023/04/21 03:20:13;;;;;;;19.90;13.10;;;;;;;9.20;89.11;94444.81;5101732;28;20433;-80
2023/04/21 03:22:41;;;;;;;18.80;13.73;;;;;;;9.19;88.85;94448.41;5119737;28;20445;-82
2023/04/21 03:25:08;;;;;;;20.97;16.23;;;;;;;9.21;89.40;94444.69;5119633;28;20488;-81
2023/04/21 03:27:35;;;;;;;20.67;15.93;;;;;;;9.07;90.57;94452.91;5119486;28;20475;-82
2023/04/21 03:30:02;;;;;;;20.50;15.03;;;;;;;9.11;91.23;94458.72;5119342;28;20434;-83
2023/04/21 03:32:28;;;;;;;21.90;15.70;;;;;;;9.13;90.52;94459.41;5117387;28;20650;-82
2023/04/21 03:34:55;;;;;;;21.30;15.17;;;;;;;9.17;90.93;94460.78;5119348;28;20462;-82
2023/04/21 03:37:22;;;;;;;18.87;16.27;;;;;;;9.09;92.17;94461.47;5119457;28;20446;-82
2023/04/21 03:39:50;;;;;;;25.43;16.80;;;;;;;9.15;91.84;94457.47;5119301;28;20453;-83
2023/04/21 03:42:17;;;;;;;28.57;17.97;;;;;;;9.19;92.33;94461.50;5067933;28;20459;-82
2023/04/21 03:44:43;;;;;;;24.80;14.83;;;;;;;9.23;92.06;94460.25;5119117;28;21229;-83
2023/04/21 03:47:10;;;;;;;23.30;16.27;;;;;;;9.28;92.19;94464.16;5119176;28;20450;-82
2023/04/21 03:49:37;;;;;;;23.93;17.67;;;;;;;9.36;91.83;94460.03;5118974;28;20424;-82
2023/04/21 03:52:04;;;;;;;22.23;15.47;;;;;;;9.43;92.11;94463.78;5119244;28;20454;-81
2023/04/21 03:54:31;;;;;;;23.77;16.67;;;;;;;9.46;92.55;94466.13;5119093;28;20433;-80
2023/04/21 03:56:59;;;;;;;25.77;20.37;;;;;;;9.37;91.59;94475.63;5119169;28;20492;-81
2023/04/21 03:59:26;;;;;;;26.70;19.50;;;;;;;9.40;92.33;94467.50;5118709;28;20483;-82
2023/04/21 04:01:53;;;;;;;24.55;18.85;;;;;;;9.49;92.37;94466.69;5066312;28;20452;-85
2023/04/21 04:04:19;;;;;;;25.63;18.90;;;;;;;9.62;91.41;94463.84;5098976;28;20589;-85
2023/04/21 04:06:46;;;;;;;25.07;18.40;;;;;;;9.68;91.26;94476.38;5095986;28;20858;-84
2023/04/21 04:09:13;;;;;;;30.87;21.90;;;;;;;9.78;90.93;94473.78;5096075;28;20458;-84
2023/04/21 04:11:40;;;;;;;52.37;26.17;;;;;;;9.82;91.89;94481.22;5095039;28;20855;-85
2023/04/21 04:14:08;;;;;;;30.07;21.97;;;;;;;9.93;92.58;94481.13;5095504;28;20839;-85
2023/04/21 04:16:35;;;;;;;32.80;19.20;;;;;;;10.16;91.24;94484.31;5043098;28;20439;-84
2023/04/21 04:19:02;;;;;;;25.73;17.40;;;;;;;10.48;89.52;94489.31;5096252;28;20458;-85
2023/04/21 04:21:30;;;;;;;26.13;18.53;;;;;;;10.67;87.27;94490.25;5095498;28;20839;-82
2023/04/21 04:23:57;;;;;;;29.03;21.30;;;;;;;10.97;85.71;94500.53;5095267;28;20436;-83
2023/04/21 04:26:25;;;;;;;24.60;18.00;;;;;;;11.45;84.79;94499.56;5094410;28;20482;-83
2023/04/21 04:28:55;;;;;;;33.97;20.80;;;;;;;12.08;81.44;94502.28;5094579;28;20444;-82
2023/04/21 04:31:24;;;;;;;32.10;19.63;;;;;;;12.69;78.42;94502.34;5094801;28;20435;-82
2023/04/21 04:33:51;;;;;;;20.40;15.40;;;;;;;13.81;85.90;94505.03;5095168;28;20432;-83
2023/04/21 04:36:17;;;;;;;27.97;17.80;;;;;;;14.33;72.46;94515.41;5094821;28;20447;-81
2023/04/21 04:38:44;;;;;;;36.90;18.87;;;;;;;14.83;68.87;94515.34;5094083;28;20475;-81
2023/04/21 04:41:11;;;;;;;32.33;18.80;;;;;;;14.92;67.29;94512.69;5094347;28;20494;-82
2023/04/21 04:43:40;;;;;;;33.50;18.60;;;;;;;14.72;67.05;94520.09;5093983;28;20443;-81
2023/04/21 04:46:07;;;;;;;27.23;18.53;;;;;;;14.26;67.67;94531.06;5092741;28;21232;-81
2023/04/21 04:48:36;;;;;;;32.33;18.60;;;;;;;14.06;69.09;94519.13;5093723;28;20448;-81
2023/04/21 04:51:02;;;;;;;36.73;19.50;;;;;;;13.84;69.92;94527.63;5094016;28;20498;-80
2023/04/21 04:53:29;;;;;;;24.57;18.37;;;;;;;13.54;71.88;94521.88;5042255;28;20456;-82
2023/04/21 04:55:57;;;;;;;21.70;16.70;;;;;;;13.49;72.04;94521.53;5094427;28;20441;-80
2023/04/21 04:58:24;;;;;;;26.07;17.53;;;;;;;13.35;72.56;94516.84;5094437;28;20429;-80
2023/04/21 05:00:51;;;;;;;25.50;17.20;;;;;;;13.12;73.79;94518.31;5093479;28;20989;-80
2023/04/21 05:03:18;;;;;;;23.87;16.80;;;;;;;12.81;75.20;94517.94;5094485;28;20747;-80
2023/04/21 05:05:46;;;;;;;20.80;15.53;;;;;;;12.71;75.43;94521.47;5093467;28;20832;-81
2023/04/21 05:08:12;;;;;;;18.97;15.83;;;;;;;12.58;77.22;94523.66;5094425;28;20448;-82
2023/04/21 05:10:39;;;;;;;22.70;18.57;;;;;;;12.47;77.94;94515.19;5093345;28;20443;-82
2023/04/21 05:13:06;;;;;;;26.20;21.73;;;;;;;12.13;79.24;94513.19;5092518;28;20432;-80
2023/04/21 05:15:33;;;;;;;26.47;18.67;;;;;;;12.17;79.79;94521.63;5093715;28;20531;-82
2023/04/21 05:18:00;;;;;;;34.00;17.83;;;;;;;12.10;80.59;94522.19;5093716;28;20446;-82
2023/04/21 05:20:26;;;;;;;25.73;19.13;;;;;;;12.32;81.21;94517.50;5093545;28;20810;-81
2023/04/21 05:22:55;;;;;;;25.00;18.10;;;;;;;12.55;80.22;94520.50;5093618;28;20934;-81
2023/04/21 05:25:21;;;;;;;32.17;19.90;;;;;;;12.50;80.09;94517.50;5093394;28;20490;-82
2023/04/21 05:27:48;;;;;;;20.87;16.60;;;;;;;12.66;80.48;94517.63;5093746;28;20435;-80
2023/04/21 05:30:15;;;;;;;21.53;16.50;;;;;;;12.67;78.84;94521.91;5093133;28;20448;-80
2023/04/21 05:32:42;;;;;;;22.30;15.53;;;;;;;12.50;78.58;94533.31;5093370;28;20454;-81
2023/04/21 05:35:09;;;;;;;21.97;16.50;;;;;;;12.29;79.50;94523.88;5057990;28;20441;-81
2023/04/21 05:37:36;;;;;;;21.87;15.00;;;;;;;12.41;81.48;94525.31;5093191;28;20439;-81
2023/04/21 05:40:05;;;;;;;18.93;13.70;;;;;;;12.65;79.09;94521.25;5092930;28;20869;-80
2023/04/21 05:42:31;;;;;;;18.47;14.23;;;;;;;12.91;79.17;94527.38;5058198;28;20444;-81
2023/04/21 05:44:58;;;;;;;28.57;14.43;;;;;;;13.01;77.71;94527.31;5094261;28;20739;-82
2023/04/21 05:47:25;;;;;;;22.17;15.77;;;;;;;12.93;78.01;94528.06;5093603;28;20444;-81
2023/04/21 05:49:52;;;;;;;19.07;13.87;;;;;;;13.20;77.17;94521.03;5094046;28;20432;-82
2023/04/21 05:52:19;;;;;;;24.73;14.70;;;;;;;13.16;76.24;94520.50;5093479;28;20440;-82
2023/04/21 05:54:46;;;;;;;16.57;14.17;;;;;;;13.12;76.02;94513.88;5093508;28;20475;-80
2023/04/21 05:57:15;;;;;;;18.87;14.53;;;;;;;13.54;75.72;94516.63;5041301;28;20442;-81
2023/04/21 05:59:42;;;;;;;16.13;13.00;;;;;;;13.84;75.31;94519.72;5093090;28;20904;-83
2023/04/21 06:02:09;;;;;;;19.77;14.00;;;;;;;14.13;73.35;94511.41;5093312;28;20448;-82
2023/04/21 06:04:36;;;;;;;16.23;14.03;;;;;;;14.40;73.26;94505.03;5041232;28;20429;-81
2023/04/21 06:07:06;;;;;;;17.43;14.00;;;;;;;15.03;69.79;94509.69;5093347;28;20531;-82
2023/04/21 06:09:33;;;;;;;29.60;14.30;;;;;;;15.31;67.55;94518.09;5093213;28;20874;-83
2023/04/21 06:12:00;;;;;;;17.70;14.23;;;;;;;14.84;68.18;94516.16;5093370;28;20429;-82
2023/04/21 06:14:29;;;;;;;20.40;15.30;;;;;;;15.28;68.78;94513.16;5092912;28;20479;-81
2023/04/21 06:16:56;;;;;;;24.93;15.23;;;;;;;15.96;68.01;94512.66;5093426;28;20792;-84
2023/04/21 06:19:23;;;;;;;19.10;14.07;;;;;;;16.71;67.68;94516.38;5093090;28;20456;-81
2023/04/21 06:21:50;;;;;;;22.60;14.80;;;;;;;17.44;62.97;94522.91;5092989;28;20439;-81
2023/04/21 06:24:23;;;;;;;13.20;11.90;;;;;;;17.99;59.64;94513.72;5093210;28;20429;-80
2023/04/21 06:26:50;;;;;;;13.30;11.90;;;;;;;18.39;56.58;94506.22;5096518;28;20551;-81
2023/04/21 06:29:18;;;;;;;11.77;10.57;;;;;;;18.45;55.13;94510.78;5096577;28;20868;-82
2023/04/21 06:31:46;;;;;;;13.17;11.07;;;;;;;18.64;55.38;94499.59;5096486;28;20784;-80
2023/04/21 06:34:13;;;;;;;11.10;9.97;;;;;;;18.53;55.26;94495.56;5095982;28;20940;-81
2023/04/21 06:36:39;;;;;;;17.93;9.53;;;;;;;18.47;54.82;94496.28;5096068;28;20444;-81
2023/04/21 06:39:06;;;;;;;16.63;10.50;;;;;;;18.28;55.57;94496.91;5050561;28;20568;-82
2023/04/21 06:41:33;;;;;;;11.63;9.53;;;;;;;18.02;56.21;94499.25;5095988;28;20486;-81
2023/04/21 06:44:00;;;;;;;12.23;9.70;;;;;;;17.51;58.34;94501.78;5096909;28;21173;-80
2023/04/21 06:46:27;;;;;;;10.50;8.93;;;;;;;17.04;57.35;94490.44;5096385;28;20489;-81
2023/04/21 06:48:55;;;;;;;11.37;9.53;;;;;;;16.90;58.87;94491.25;5096325;28;20446;-82
2023/04/21 06:51:22;;;;;;;15.33;9.10;;;;;;;17.12;61.98;94478.97;5095824;28;20434;-82
2023/04/21 06:53:48;;;;;;;10.30;9.20;;;;;;;17.45;57.86;94497.22;5096107;28;20453;-83
2023/04/21 06:56:15;;;;;;;11.20;9.00;;;;;;;17.48;57.09;94492.34;5095386;28;20435;-83
2023/04/21 06:58:42;;;;;;;10.80;9.70;;;;;;;17.55;56.47;94492.44;5094822;28;20440;-81
2023/04/21 07:01:09;;;;;;;19.03;10.40;;;;;;;17.42;57.20;94492.28;5094950;28;20852;-82
2023/04/21 07:03:35;;;;;;;13.00;10.10;;;;;;;18.03;63.97;94477.00;5095529;28;20945;-82
2023/04/21 07:06:04;;;;;;;11.20;9.07;;;;;;;18.22;55.06;94476.44;5095629;28;21004;-81
2023/04/21 07:08:31;;;;;;;11.53;9.90;;;;;;;18.37;55.82;94487.81;5095533;28;20494;-82
2023/04/21 07:10:58;;;;;;;11.57;10.07;;;;;;;18.21;54.61;94488.03;5095521;28;20503;-82
2023/04/21 07:13:24;;;;;;;11.07;8.50;;;;;;;18.19;56.91;94495.34;5095425;28;20436;-82
2023/04/21 07:15:51;;;;;;;15.90;9.60;;;;;;;17.90;55.11;94491.72;5095240;28;20451;-82
2023/04/21 07:18:18;;;;;;;11.97;9.50;;;;;;;17.80;55.97;94490.38;5043561;28;20458;-82
2023/04/21 07:20:45;;;;;;;12.13;9.50;;;;;;;17.76;56.02;94492.59;5095310;28;20463;-82
2023/04/21 07:23:14;;;;;;;11.43;8.77;;;;;;;17.83;55.18;94488.19;5095753;28;20452;-81
2023/04/21 07:25:40;;;;;;;9.20;8.20;;;;;;;18.08;55.69;94494.00;5095237;28;20970;-83
2023/04/21 07:28:07;;;;;;;12.47;9.80;;;;;;;17.86;55.44;94492.28;5095624;28;21005;-82
2023/04/21 07:30:34;;;;;;;12.27;9.20;;;;;;;17.60;56.66;94495.38;5060119;28;20458;-82
2023/04/21 07:33:01;;;;;;;10.83;8.60;;;;;;;17.50;56.84;94490.34;5095537;28;20785;-80
2023/04/21 07:35:27;;;;;;;9.23;8.33;;;;;;;17.41;56.55;94487.97;5095434;28;20756;-80
2023/04/21 07:37:55;;;;;;;9.80;8.67;;;;;;;17.70;59.28;94488.00;5094711;28;20441;-82
2023/04/21 07:40:23;;;;;;;8.40;7.63;;;;;;;17.95;56.22;94472.63;5094090;28;20475;-82
2023/04/21 07:42:49;;;;;;;10.33;9.03;;;;;;;18.34;56.11;94474.09;5094098;28;20455;-81
2023/04/21 07:45:16;;;;;;;16.77;8.60;;;;;;;18.69;53.73;94483.88;5092754;28;20444;-80
2023/04/21 07:47:45;;;;;;;11.07;9.90;;;;;;;18.63;55.38;94489.16;5092854;28;20445;-80
2023/04/21 07:50:11;;;;;;;8.50;7.70;;;;;;;18.51;53.39;94489.63;5093030;28;20977;-81
2023/04/21 07:52:38;;;;;;;9.27;8.27;;;;;;;18.53;53.39;94486.78;5094535;28;20445;-81
2023/04/21 07:55:06;;;;;;;10.10;8.03;;;;;;;18.60;53.04;94490.31;5094971;28;20477;-82
2023/04/21 07:57:37;;;;;;;10.23;8.20;;;;;;;18.69;53.38;94488.38;5094718;28;20514;-81
2023/04/21 08:00:05;;;;;;;11.23;6.80;;;;;;;18.83;52.99;94493.66;5094850;28;20436;-79
2023/04/21 08:02:32;;;;;;;8.27;7.47;;;;;;;18.82;52.57;94491.19;5094637;28;20448;-81
2023/04/21 08:04:59;;;;;;;10.93;8.17;;;;;;;19.02;52.85;94492.16;5094926;28;20446;-81
2023/04/21 08:07:26;;;;;;;8.10;7.30;;;;;;;19.00;52.58;94494.19;5092618;28;20487;-82
2023/04/21 08:09:52;;;;;;;10.17;7.43;;;;;;;18.77;52.75;94493.56;5092774;28;20447;-83
2023/04/21 08:12:19;;;;;;;6.83;6.10;;;;;;;18.58;52.03;94495.00;5092258;28;20479;-81
2023/04/21 08:14:47;;;;;;;9.30;7.13;;;;;;;18.93;52.13;94488.00;5093550;28;20452;-81
2023/04/21 08:17:14;;;;;;;9.80;7.33;;;;;;;19.25;53.66;94476.00;5094319;28;20806;-82
2023/04/21 08:19:41;;;;;;;8.47;7.27;;;;;;;19.70;50.05;94480.03;5094533;28;20489;-81
2023/04/21 08:22:08;;;;;;;9.03;7.27;;;;;;;20.23;51.30;94474.94;5094166;28;20507;-80
2023/04/21 08:24:34;;;;;;;8.70;7.13;;;;;;;20.48;48.27;94471.78;5094025;28;20943;-83
2023/04/21 08:27:02;;;;;;;9.33;6.67;;;;;;;20.25;47.63;94472.91;5094101;28;20482;-81
2023/04/21 08:29:29;;;;;;;8.60;7.70;;;;;;;19.95;48.80;94471.53;5093974;28;20445;-79
2023/04/21 08:31:57;;;;;;;11.20;8.10;;;;;;;19.89;49.97;94469.66;5094467;28;20446;-80
2023/04/21 08:34:24;;;;;;;14.43;7.90;;;;;;;19.71;49.77;94476.34;5042135;28;20446;-81
2023/04/21 08:36:51;;;;;;;9.90;8.20;;;;;;;19.62;50.42;94474.84;5093816;28;20444;-80
2023/04/21 08:39:17;;;;;;;13.00;8.50;;;;;;;19.57;48.93;94481.78;5094275;28;20513;-78
2023/04/21 08:41:44;;;;;;;8.50;7.70;;;;;;;19.42;51.36;94476.53;5092057;28;20509;-76
2023/04/21 08:44:11;;;;;;;12.20;7.07;;;;;;;19.10;52.47;94478.75;5092786;28;20569;-75
2023/04/21 08:46:39;;;;;;;7.13;6.53;;;;;;;18.90;51.10;94469.78;5093053;28;21049;-76
2023/04/21 08:49:09;;;;;;;7.30;6.60;;;;;;;19.05;52.64;94469.69;5092757;28;20455;-75
2023/04/21 08:51:36;;;;;;;8.87;7.30;;;;;;;19.16;53.73;94462.03;5093094;28;20446;-77
2023/04/21 08:54:03;;;;;;;14.33;7.40;;;;;;;19.00;51.25;94467.59;5092785;28;20453;-76
2023/04/21 08:56:30;;;;;;;7.70;6.57;;;;;;;18.90;52.12;94469.78;5093129;28;20463;-75
2023/04/21 08:58:57;;;;;;;9.87;6.40;;;;;;;18.70;51.88;94468.75;5093113;28;20440;-76
2023/04/21 09:01:23;;;;;;;7.90;7.13;;;;;;;18.54;53.39;94456.53;5092912;28;20928;-75
2023/04/21 09:03:50;;;;;;;12.63;8.57;;;;;;;18.59;56.41;94456.78;5041865;28;20499;-87
2023/04/21 09:06:18;;;;;;;9.13;7.30;;;;;;;18.88;54.64;94455.84;5041720;28;20480;-79
2023/04/21 09:08:54;;;;;;;8.77;7.80;;;;;;;18.92;51.85;94451.78;5093970;28;20435;-78
2023/04/21 09:11:21;;;;;;;8.33;7.60;;;;;;;19.07;55.26;94447.19;5093283;28;20456;-79
2023/04/21 09:13:48;;;;;;;9.07;7.07;;;;;;;19.08;51.51;94448.88;5093881;28;20440;-80
2023/04/21 09:16:17;;;;;;;8.60;6.93;;;;;;;19.11;51.29;94427.22;5093419;28;20499;-80
2023/04/21 09:18:44;;;;;;;9.53;7.30;;;;;;;19.18;50.19;94433.38;5093657;28;20434;-78
2023/04/21 09:21:12;;;;;;;7.40;6.43;;;;;;;19.28;51.11;94432.22;5057920;28;20445;-77
2023/04/21 09:23:45;;;;;;;11.00;7.73;;;;;;;19.64;51.18;94438.19;5041815;28;20452;-79
2023/04/21 09:26:12;;;;;;;8.03;7.00;;;;;;;19.61;49.41;94433.28;5093169;28;20481;-77
2023/04/21 09:28:43;;;;;;;6.93;6.30;;;;;;;19.28;49.55;94432.22;5093056;28;20442;-80
2023/04/21 09:31:18;;;;;;;7.93;7.17;;;;;;;18.92;50.71;94421.72;5093325;28;20452;-80
2023/04/21 09:33:49;;;;;;;8.43;6.40;;;;;;;18.70;51.74;94428.91;5093559;28;20803;-80
2023/04/21 09:36:20;;;;;;;8.80;7.20;;;;;;;18.57;50.82;94424.25;5074483;28;20933;-78
2023/04/21 09:38:56;;;;;;;9.70;7.20;;;;;;;18.53;52.48;94425.66;5093580;28;20564;-78
2023/04/21 09:41:23;;;;;;;9.93;5.90;;;;;;;18.55;51.75;94426.28;5093214;28;20533;-76
2023/04/21 09:43:50;;;;;;;8.63;5.73;;;;;;;18.66;60.32;94427.63;5092959;28;20450;-75
2023/04/21 09:46:19;;;;;;;9.65;7.30;;;;;;;18.57;52.28;94424.25;5091155;28;20444;-76
2023/04/21 09:48:47;;;;;;;8.13;6.23;;;;;;;18.58;55.94;94420.59;5021780;28;20210;-75
2023/04/21 09:51:16;;;;;;;9.00;6.60;;;;;;;18.53;50.66;94423.00;5037361;28;20436;-78
2023/04/21 09:53:44;;;;;;;6.23;5.50;;;;;;;18.42;50.39;94418.19;5073484;28;21180;-81
2023/04/21 09:56:14;;;;;;;8.93;5.90;;;;;;;18.38;50.67;94416.91;5073323;28;20892;-88
2023/04/21 09:58:46;;;;;;;11.57;5.93;;;;;;;18.45;54.62;94408.00;5073070;28;20448;-83
2023/04/21 10:01:14;;;;;;;7.30;5.40;;;;;;;18.61;49.21;94411.41;5076755;28;20447;-83
2023/04/21 10:03:42;;;;;;;11.20;5.90;;;;;;;18.64;48.96;94408.41;5076755;28;20448;-79
2023/04/21 10:06:08;;;;;;;6.00;5.47;;;;;;;18.74;49.02;94408.88;5076789;28;20423;-81
2023/04/21 10:08:36;;;;;;;5.50;5.00;;;;;;;18.83;48.55;94407.75;5076436;28;20455;-80
2023/04/21 10:11:05;;;;;;;6.97;5.50;;;;;;;18.95;47.64;94400.88;5077061;28;20442;-80
2023/04/21 10:13:33;;;;;;;7.93;5.83;;;;;;;18.50;48.82;94392.31;5076191;28;20897;-80
2023/04/21 10:16:06;;;;;;;7.10;6.40;;;;;;;18.24;50.64;94397.38;5076272;28;20674;-80
2023/04/21 10:18:36;;;;;;;11.20;7.13;;;;;;;18.11;51.46;94400.69;5076502;28;20444;-80
2023/04/21 10:21:06;;;;;;;6.33;5.83;;;;;;;17.94;50.62;94405.44;5076399;28;20471;-83
2023/04/21 10:23:37;;;;;;;6.93;6.27;;;;;;;17.74;51.67;94399.06;5076574;28;20505;-83
2023/04/21 10:26:10;;;;;;;14.03;6.20;;;;;;;17.65;51.43;94394.84;5076604;28;20935;-84
2023/04/21 10:28:53;;;;;;;8.17;6.30;;;;;;;17.73;52.10;94393.94;5075844;28;20536;-83
2023/04/21 10:31:28;;;;;;;6.20;5.60;;;;;;;18.01;51.68;94380.78;5075860;28;20845;-79
2023/04/21 10:34:18;;;;;;;6.73;6.13;;;;;;;18.24;51.14;94382.25;5076351;28;20441;-83
2023/04/21 10:37:14;;;;;;;8.30;6.50;;;;;;;18.38;52.76;94387.69;5076386;28;20913;-81
2023/04/21 10:39:55;;;;;;;8.27;7.47;;;;;;;18.24;53.14;94387.56;4994059;28;20476;-82
2023/04/21 10:42:33;;;;;;;12.23;6.70;;;;;;;18.02;53.40;94393.06;4994085;28;20967;-82
2023/04/21 10:45:13;;;;;;;10.73;7.23;;;;;;;17.75;53.42;94391.91;4993353;28;20453;-81
2023/04/21 10:47:50;;;;;;;7.80;7.10;;;;;;;17.74;55.75;94398.25;5013642;28;20597;-81
2023/04/21 10:50:19;;;;;;;17.73;10.37;;;;;;;17.62;54.42;94395.19;5033771;28;20446;-81
2023/04/21 10:52:58;;;;;;;10.40;6.77;;;;;;;17.54;55.36;94388.16;5033660;28;20967;-82
2023/04/21 10:55:29;;;;;;;7.60;6.60;;;;;;;17.49;57.22;94393.19;5032060;28;20434;-81
2023/04/21 10:57:57;;;;;;;8.33;7.33;;;;;;;17.49;56.83;94392.38;5031975;28;20453;-81
2023/04/21 11:00:26;;;;;;;8.10;7.30;;;;;;;17.63;57.46;94388.88;5031679;28;20445;-82
2023/04/21 11:03:01;;;;;;;8.27;7.47;;;;;;;17.79;56.17;94396.66;5032410;28;20436;-84
2023/04/21 11:05:34;;;;;;;7.60;6.90;;;;;;;17.82;53.94;94390.16;5032389;28;20870;-84
2023/04/21 11:08:11;;;;;;;12.27;7.00;;;;;;;17.81;54.55;94385.84;4986060;28;20488;-80
2023/04/21 11:10:53;;;;;;;12.93;6.30;;;;;;;17.74;54.08;94392.94;5032797;28;20448;-81
2023/04/21 11:13:24;;;;;;;7.50;6.80;;;;;;;17.68;55.97;94391.03;5033292;28;20527;-79
2023/04/21 11:16:05;;;;;;;10.33;6.43;;;;;;;17.88;62.12;94390.22;5047068;28;20513;-80
2023/04/21 11:18:38;;;;;;;13.67;6.97;;;;;;;17.92;60.30;94388.00;5095536;28;20441;-83
2023/04/21 11:21:16;;;;;;;12.83;7.40;;;;;;;18.06;60.69;94383.69;5095549;28;20856;-83
2023/04/21 11:23:49;;;;;;;11.33;7.00;;;;;;;18.20;56.67;94383.63;5095512;28;20778;-83
2023/04/21 11:26:16;;;;;;;8.47;6.43;;;;;;;18.28;52.70;94388.00;5095461;28;20434;-80
2023/04/21 11:28:42;;;;;;;5.77;5.03;;;;;;;18.33;51.73;94384.78;5095303;28;20878;-80
2023/04/21 11:31:11;;;;;;;11.70;7.00;;;;;;;18.25;52.31;94389.22;5095669;28;20421;-83
2023/04/21 11:33:38;;;;;;;6.90;5.83;;;;;;;17.96;54.33;94391.97;5095404;28;20784;-82
2023/04/21 11:36:06;;;;;;;9.30;6.00;;;;;;;17.78;55.00;94399.50;5095149;28;20462;-75
2023/04/21 11:38:40;;;;;;;6.10;5.50;;;;;;;17.42;55.71;94402.91;5026320;28;20495;-79